Latest Coastal Weather Observations for Hindmarsh Island

IDS60701

Issued at 1:25 am CDT Saturday 29 November 2014 (issued every 10 minutes, with the page automatically refreshed every 10 minutes)

About coastal observations | Map of coastal stations | Coastal observations for SA | Marine services | Other Formats
Station Details ID: 023894 Name: HINDMARSH ISLAND AWS Lat: -35.52 Lon: 138.82 Height: 11.0 m
Data from the previous 72 hours. | See also: Recent months at Hindmarsh Island
Date/Time
CDT
Temp

°C
Wind Pressure Rain
since 9am
mm
Weather Cloud Vis
km
Sea
Height
m
Swell
Dir
 
Speed
knots
Gust
knots
hPa Trend Height
m
Period
s
Dir
29/01:00am 15.9 W 6 7 1014.9 - 0.0 - - - - - - -
29/12:30am 16.4 W 7 8 1015.5 - 0.0 - - - - - - -
29/12:00am 16.4 WSW 8 9 1015.8 - 0.0 - - - - - - -
 
Date/Time
CDT
Temp

°C
Wind Pressure Rain
since 9am
mm
Weather Cloud Vis
km
Sea
Height
m
Swell
Dir
 
Speed
knots
Gust
knots
hPa Trend Height
m
Period
s
Dir
28/11:30pm 16.4 WSW 8 9 1016.2 - 0.0 - - - - - - -
28/11:00pm 16.7 SSW 7 9 1016.2 - 0.0 - - - - - - -
28/10:30pm 16.8 SSW 7 8 1016.4 - 0.0 - - - - - - -
28/10:00pm 17.0 S 6 8 1016.5 - 0.0 - - - - - - -
28/09:30pm 17.2 SSW 9 10 1016.6 - 0.0 - - - - - - -
28/09:00pm 17.6 SSW 10 12 1016.5 - 0.0 - - - - - - -
28/08:30pm 17.6 SSW 9 11 1016.6 - 0.0 - - - - - - -
28/08:00pm 18.0 SSW 10 11 1016.6 - 0.0 - - - - - - -
28/07:30pm 18.1 SSW 10 11 1016.6 - 0.0 - - - - - - -
28/07:00pm 18.4 S 11 13 1016.4 - 0.0 - - - - - - -
28/06:30pm 18.8 S 12 14 1016.3 - 0.0 - - - - - - -
28/06:00pm 19.1 S 12 14 1016.2 - 0.0 - - - - - - -
28/05:30pm 19.8 S 12 15 1016.3 - 0.0 - - - - - - -
28/05:00pm 20.5 S 13 16 1016.4 - 0.0 - - - - - - -
28/04:30pm 20.7 S 13 15 1016.5 - 0.0 - - - - - - -
28/04:00pm 20.9 SSW 13 15 1016.9 - 0.0 - - - - - - -
28/03:30pm 21.2 SSW 13 16 1017.1 - 0.0 - - - - - - -
28/03:00pm 21.1 SSE 17 19 1016.6 - 0.0 - - - - - - -
28/02:30pm 21.5 S 15 17 1017.0 - 0.0 - - - - - - -
28/02:00pm 23.3 S 12 15 1017.5 - 0.0 - - - - - - -
28/01:30pm 22.7 S 13 15 1017.8 - 0.0 - - - - - - -
28/01:00pm 22.8 S 12 15 1018.2 - 0.0 - - - - - - -
28/12:30pm 21.7 S 11 13 1018.7 - 0.0 - - - - - - -
28/12:00pm 21.4 SSE 11 12 1018.9 - 0.0 - - - - - - -
28/11:30am 21.2 SSE 10 13 1019.4 - 0.0 - - - - - - -
28/11:00am 20.5 S 4 5 1020.2 - 0.0 - - - - - - -
28/10:30am 19.5 NNE 6 8 1020.4 - 0.0 - - - - - - -
28/10:00am 19.3 ENE 6 10 1020.6 - 0.0 - - - - - - -
28/09:30am 18.5 ENE 7 9 1020.8 - 0.0 - - - - - - -
28/09:00am 17.3 E 8 12 1021.1 - 0.0 Haze Mostly clear 6 - - - -
28/08:30am 16.1 E 7 11 1021.6 - 0.0 - - - - - - -
28/08:00am 15.2 E 11 14 1021.4 - 0.0 - - - - - - -
28/07:30am 15.2 E 9 11 1021.3 - 0.0 - - - - - - -
28/07:00am 14.5 ENE 6 8 1021.2 - 0.0 - - - - - - -
28/06:30am 13.9 E 8 9 1020.8 - 0.0 - - - - - - -
28/06:00am 14.6 ESE 7 13 1020.6 - 0.0 - - - - - - -
28/05:30am 15.4 SE 10 12 1020.5 - 0.0 - - - - - - -
28/05:00am 15.7 SSE 10 11 1020.4 - 0.0 - - - - - - -
28/04:30am 15.7 SSE 10 12 1020.1 - 0.0 - - - - - - -
28/04:00am 15.7 SSE 9 11 1020.0 - 0.0 - - - - - - -
28/03:30am 15.8 S 8 11 1019.9 - 0.0 - - - - - - -
28/03:00am 16.1 S 9 11 1019.9 - 0.0 - - - - - - -
28/02:30am 16.1 S 10 13 1020.3 - 0.0 - - - - - - -
28/02:00am 16.0 S 8 12 1020.5 - 0.0 - - - - - - -
28/01:30am 15.8 S 10 12 1020.6 - 0.0 - - - - - - -
28/01:00am 15.6 S 8 9 1020.8 - 0.0 - - - - - - -
28/12:30am 15.4 S 8 10 1021.3 - 0.0 - - - - - - -
28/12:00am 15.6 S 9 11 1021.5 - 0.0 - - - - - - -
 
Date/Time
CDT
Temp

°C
Wind Pressure Rain
since 9am
mm
Weather Cloud Vis
km
Sea
Height
m
Swell
Dir
 
Speed
knots
Gust
knots
hPa Trend Height
m
Period
s
Dir
27/11:30pm 15.2 S 7 9 1021.9 - 0.0 - - - - - - -
27/11:00pm 15.5 S 9 11 1022.1 - 0.0 - - - - - - -
27/10:30pm 15.3 SSE 9 11 1022.3 - 0.0 - - - - - - -
27/10:00pm 15.6 S 11 14 1022.6 - 0.0 - - - - - - -
27/09:30pm 15.5 S 12 14 1022.6 - 0.0 - - - - - - -
27/09:00pm 15.5 S 13 16 1022.4 - 0.0 - - - - - - -
27/08:30pm 15.7 S 13 15 1022.5 - 0.0 - - - - - - -
27/08:00pm 15.9 S 14 16 1022.6 - 0.0 - - - - - - -
27/07:30pm 16.5 S 15 17 1022.4 - 0.0 - - - - - - -
27/07:00pm 16.8 S 16 18 1022.2 - 0.0 - - - - - - -
27/06:30pm 16.9 S 16 19 1022.2 - 0.0 - - - - - - -
27/06:00pm 17.3 S 17 20 1022.0 - 0.0 - - - - - - -
27/05:30pm 17.8 S 18 21 1022.1 - 0.0 - - - - - - -
27/05:00pm 17.8 S 18 21 1022.3 - 0.0 - - - - - - -
27/04:30pm 18.1 S 18 20 1022.6 - 0.0 - - - - - - -
27/04:00pm 18.1 S 17 20 1022.6 - 0.0 - - - - - - -
27/03:30pm 18.3 S 17 20 1022.8 - 0.0 - - - - - - -
27/03:00pm 18.5 S 17 19 1022.8 - 0.0 - - - - - - -
27/02:30pm 18.4 S 15 19 1023.3 - 0.0 - - - - - - -
27/02:00pm 18.4 SSE 15 19 1023.4 - 0.0 - - - - - - -
27/01:30pm 18.3 SSE 15 17 1023.8 - 0.0 - - - - - - -
27/01:00pm 18.4 SSE 14 17 1024.0 - 0.0 - - - - - - -
27/12:30pm 18.2 SSE 15 19 1024.0 - 0.0 - - - - - - -
27/12:00pm 17.8 SSE 16 19 1024.3 - 0.0 - - - - - - -
27/11:30am 18.1 SSE 16 20 1024.5 - 0.0 - - - - - - -
27/11:00am 17.5 SSE 15 19 1024.7 - 0.0 - - - - - - -
27/10:30am 17.7 SE 15 18 1024.9 - 0.0 - - - - - - -
27/10:00am 16.9 SE 15 18 1025.0 - 0.0 - - - - - - -
27/09:30am 17.1 SE 15 17 1025.4 - 0.0 - - - - - - -
27/09:00am 16.4 SE 11 14 1025.4 - 0.0 - - - - - - -
27/08:30am 15.8 SE 12 14 1025.6 - 0.0 - - - - - - -
27/08:00am 14.4 ESE 10 13 1025.7 - 0.0 - - - - - - -
27/07:30am 13.8 ESE 11 13 1025.5 - 0.0 - - - - - - -
27/07:00am 13.4 E 11 16 1025.1 - 0.0 - - - - - - -
27/06:30am 12.8 E 12 16 1024.8 - 0.0 - - - - - - -
27/06:00am 12.2 NE 8 9 1024.6 - 0.0 - - - - - - -
27/05:30am 12.2 NE 7 8 1024.3 - 0.0 - - - - - - -
27/05:00am 14.2 ESE 12 18 1023.9 - 0.0 - - - - - - -
27/04:30am 14.8 SE 15 19 1023.6 - 0.0 - - - - - - -
27/04:00am 14.9 SE 17 20 1023.5 - 0.0 - - - - - - -
27/03:30am 15.1 SE 17 19 1023.3 - 0.0 - - - - - - -
27/03:00am 15.4 SE 17 20 1023.3 - 0.0 - - - - - - -
27/02:30am 15.5 SE 16 20 1023.7 - 0.0 - - - - - - -
27/02:00am 15.6 SE 16 21 1023.7 - 0.0 - - - - - - -
27/01:30am 15.8 SSE 16 18 1023.9 - 0.0 - - - - - - -
27/01:00am 15.9 SE 15 19 1023.9 - 0.0 - - - - - - -
27/12:30am 16.1 SSE 16 19 1023.9 - 0.0 - - - - - - -
27/12:00am 16.1 SSE 16 19 1024.0 - 0.0 - - - - - - -
 
Date/Time
CDT
Temp

°C
Wind Pressure Rain
since 9am
mm
Weather Cloud Vis
km
Sea
Height
m
Swell
Dir
 
Speed
knots
Gust
knots
hPa Trend Height
m
Period
s
Dir
26/11:30pm 16.0 SSE 15 18 1024.3 - 0.0 - - - - - - -
26/11:00pm 16.3 SSE 15 17 1024.2 - 0.0 - - - - - - -
26/10:30pm 16.1 SSE 13 16 1024.3 - 0.0 - - - - - - -
26/10:00pm 15.9 SSE 15 17 1024.2 - 0.0 - - - - - - -
26/09:30pm 16.2 SSE 16 19 1023.9 - 0.0 - - - - - - -
26/09:00pm 16.2 S 13 16 1023.7 - 0.0 - - - - - - -
26/08:30pm 16.1 SSE 14 17 1023.7 - 0.0 - - - - - - -
26/08:00pm 16.4 SSE 15 17 1023.6 - 0.0 - - - - - - -
26/07:30pm 16.7 SSE 16 19 1023.3 - 0.0 - - - - - - -
26/07:00pm 16.9 S 15 18 1023.2 - 0.0 - - - - - - -
26/06:30pm 17.1 S 15 19 1023.0 - 0.0 - - - - - - -
26/06:00pm 17.6 S 15 18 1022.8 - 0.0 - - - - - - -
26/05:30pm 17.4 S 16 19 1022.8 - 0.0 - - - - - - -
26/05:00pm 17.7 S 14 17 1023.0 - 0.0 - - - - - - -
26/04:30pm 17.7 S 15 18 1023.0 - 0.0 - - - - - - -
26/04:00pm 18.2 S 16 21 1023.0 - 0.0 - - - - - - -
26/03:30pm 18.2 S 16 19 1023.2 - 0.0 - - - - - - -
26/03:00pm 18.9 S 12 16 1023.5 - 0.0 - - - - - - -
26/02:30pm 18.4 S 12 14 1023.8 - 0.0 - - - - - - -
26/02:00pm 18.6 S 14 17 1024.0 - 0.0 - - - - - - -
26/01:30pm 18.3 S 13 16 1024.2 - 0.0 - - - - - - -
26/01:00pm 18.8 S 10 13 1024.5 - 0.0 - - - - - - -
26/12:30pm 19.2 S 9 14 1024.6 - 0.0 - - - - - - -
26/12:00pm 18.3 SSW 13 16 1024.5 - 0.0 - - - - - - -
26/11:30am 18.3 SSW 11 14 1024.9 - 0.0 - - - - - - -
26/11:00am 17.7 SSW 10 13 1024.7 - 0.0 - - - - - - -
26/10:30am 17.1 S 11 14 1024.6 - 0.0 - - - - - - -
26/10:00am 17.0 S 7 11 1024.4 - 0.0 - - - - - - -
26/09:30am 16.3 S 9 11 1024.3 - 0.0 - - - - - - -
26/09:00am 16.2 S 5 7 1023.9 - 0.0 Haze Cloudy 7 - - - -
26/08:30am 16.0 S 6 7 1023.9 - 0.0 - - - - - - -
26/08:00am 15.9 SSE 5 8 1023.5 - 0.0 - - - - - - -
26/07:30am 15.9 S 8 11 1023.2 - 0.0 - - - - - - -
26/07:00am 15.1 SE 6 10 1022.9 - 0.0 - - - - - - -
26/06:30am 14.5 SSE 6 8 1022.6 - 0.0 - - - - - - -
26/06:00am 14.4 S 7 7 1022.1 - 0.0 - - - - - - -
26/05:30am 14.3 S 7 9 1022.0 - 0.0 - - - - - - -
26/05:00am 14.3 S 8 9 1021.8 - 0.0 - - - - - - -
26/04:30am 14.7 S 7 9 1021.9 - 0.0 - - - - - - -
26/04:00am 14.5 S 7 9 1021.8 - 0.0 - - - - - - -
26/03:30am 14.5 S 7 9 1021.8 - 0.0 - - - - - - -
26/03:00am 14.4 S 8 9 1021.7 - 0.0 - - - - - - -
26/02:30am 14.7 S 7 11 1021.8 - 0.0 - - - - - - -
26/02:00am 14.5 S 8 11 1022.1 - 0.0 - - - - - - -
26/01:30am 14.4 S 8 10 1022.3 - 0.0 - - - - - - -

Other Formats:

Comma delimited format used in spreadsheet applications
http://www.bom.gov.au/fwo/IDS60701/IDS60701.94677.axf

JavaScript Object Notation format (JSON) in row-major order
http://www.bom.gov.au/fwo/IDS60701/IDS60701.94677.json